createdAt,value
2022-10-18T00:00:56.897Z,973.37
2022-10-18T00:01:56.938Z,973.33
2022-10-18T00:02:56.811Z,973.37
2022-10-18T00:03:56.850Z,973.37
2022-10-18T00:04:56.828Z,973.29
2022-10-18T00:05:56.860Z,973.34
2022-10-18T00:06:56.787Z,973.35
2022-10-18T00:07:56.778Z,973.34
2022-10-18T00:08:56.751Z,973.34
2022-10-18T00:09:56.750Z,973.35
2022-10-18T00:10:56.732Z,973.37
2022-10-18T00:11:56.712Z,973.42
2022-10-18T00:12:56.719Z,973.34
2022-10-18T00:13:56.690Z,973.34
2022-10-18T00:14:56.675Z,973.34
2022-10-18T00:15:56.693Z,973.34
2022-10-18T00:16:56.663Z,973.33
2022-10-18T00:17:56.693Z,973.37
2022-10-18T00:18:56.647Z,973.29
2022-10-18T00:19:56.645Z,973.32
2022-10-18T00:20:56.641Z,973.31
2022-10-18T00:21:56.616Z,973.30
2022-10-18T00:22:56.608Z,973.31
2022-10-18T00:23:56.583Z,973.30
2022-10-18T00:24:56.591Z,973.26
2022-10-18T00:25:56.570Z,973.29
2022-10-18T00:26:56.569Z,973.29
2022-10-18T00:27:56.534Z,973.22
2022-10-18T00:28:56.582Z,973.14
2022-10-18T00:29:56.521Z,973.12
2022-10-18T00:30:56.538Z,973.16
2022-10-18T00:31:56.490Z,973.11
2022-10-18T00:32:56.513Z,973.08
2022-10-18T00:33:56.480Z,973.09
2022-10-18T00:34:56.503Z,973.08
2022-10-18T00:35:56.436Z,973.06
2022-10-18T00:36:56.458Z,973.06
2022-10-18T00:37:56.479Z,973.02
2022-10-18T00:38:56.401Z,973.02
2022-10-18T00:39:56.402Z,973.07
2022-10-18T00:40:56.439Z,973.03
2022-10-18T00:41:56.387Z,973.07
2022-10-18T00:42:56.359Z,973.04
2022-10-18T00:43:56.400Z,973.05
2022-10-18T00:44:56.331Z,973.04
2022-10-18T00:45:56.326Z,973.03
2022-10-18T00:46:56.361Z,973.06
2022-10-18T00:47:56.303Z,972.99
2022-10-18T00:48:56.351Z,973.07
2022-10-18T00:49:56.281Z,973.08
2022-10-18T00:50:56.288Z,973.10
2022-10-18T00:51:56.324Z,973.13
2022-10-18T00:52:56.273Z,973.18
2022-10-18T00:53:56.258Z,973.15
2022-10-18T00:54:56.261Z,973.10
2022-10-18T00:55:56.243Z,973.12
2022-10-18T00:56:56.233Z,973.13
2022-10-18T00:57:56.213Z,973.06
2022-10-18T00:58:56.185Z,973.11
2022-10-18T00:59:56.200Z,973.08
2022-10-18T01:00:56.178Z,973.10
2022-10-18T01:01:56.232Z,973.08
2022-10-18T01:02:56.167Z,973.15
2022-10-18T01:03:56.126Z,973.14
2022-10-18T01:04:56.157Z,973.09
2022-10-18T01:05:56.126Z,973.15
2022-10-18T01:07:56.126Z,973.04
2022-10-18T01:08:56.177Z,973.02
2022-10-18T01:09:56.079Z,973.00
2022-10-18T01:10:56.076Z,973.01
2022-10-18T01:11:56.057Z,973.02
2022-10-18T01:12:56.043Z,973.01
2022-10-18T01:13:56.061Z,972.95
2022-10-18T01:14:56.030Z,973.01
2022-10-18T01:16:56.033Z,972.93
2022-10-18T01:17:56.086Z,972.93
2022-10-18T01:18:55.966Z,972.92
2022-10-18T01:19:56.038Z,972.91
2022-10-18T01:20:55.950Z,972.90
2022-10-18T01:21:55.921Z,972.92
2022-10-18T01:22:55.930Z,972.93
2022-10-18T01:23:55.925Z,972.90
2022-10-18T01:24:55.951Z,972.94
2022-10-18T01:25:55.945Z,972.94
2022-10-18T01:26:55.886Z,972.92
2022-10-18T01:27:55.853Z,972.89
2022-10-18T01:28:55.920Z,972.87
2022-10-18T01:29:55.831Z,972.89
2022-10-18T01:30:55.827Z,972.89
2022-10-18T01:31:57.667Z,972.85
2022-10-18T01:32:55.804Z,972.87
2022-10-18T01:33:55.871Z,972.86
2022-10-18T01:34:55.807Z,972.89
2022-10-18T01:35:55.779Z,972.85
2022-10-18T01:36:55.787Z,972.90
2022-10-18T01:37:55.769Z,972.90
2022-10-18T01:38:55.751Z,972.86
2022-10-18T01:39:55.754Z,972.85
2022-10-18T01:40:55.725Z,972.89
2022-10-18T01:41:55.735Z,972.88
2022-10-18T01:42:55.787Z,972.89
2022-10-18T01:43:55.719Z,972.89
2022-10-18T01:44:55.685Z,972.91
2022-10-18T01:45:55.738Z,972.90
2022-10-18T01:46:55.678Z,972.89
2022-10-18T01:47:55.683Z,972.91
2022-10-18T01:48:55.662Z,972.92
2022-10-18T01:49:55.622Z,972.90
2022-10-18T01:50:55.597Z,972.92
2022-10-18T01:51:55.640Z,972.90
2022-10-18T01:52:55.608Z,972.88
2022-10-18T01:53:55.587Z,972.89
2022-10-18T01:54:55.575Z,972.91
2022-10-18T01:55:55.572Z,972.93
2022-10-18T01:56:55.532Z,972.92
2022-10-18T01:57:55.578Z,972.89
2022-10-18T01:58:55.521Z,972.87
2022-10-18T01:59:55.507Z,972.90
2022-10-18T02:00:55.499Z,972.87
2022-10-18T02:01:55.489Z,972.87
2022-10-18T02:02:55.473Z,972.83
2022-10-18T02:03:55.493Z,972.84
2022-10-18T02:04:55.449Z,972.86
2022-10-18T02:05:55.432Z,972.87
2022-10-18T02:06:55.433Z,972.86
2022-10-18T02:08:05.870Z,972.89
2022-10-18T02:08:55.410Z,972.87
2022-10-18T02:09:55.416Z,972.85
2022-10-18T02:10:55.396Z,972.86
2022-10-18T02:11:55.412Z,972.87
2022-10-18T02:12:55.426Z,972.88
2022-10-18T02:13:55.350Z,972.88
2022-10-18T02:14:55.331Z,972.90
2022-10-18T02:15:55.316Z,972.94
2022-10-18T02:16:55.327Z,972.92
2022-10-18T02:17:55.299Z,972.93
2022-10-18T02:18:55.316Z,972.93
2022-10-18T02:19:55.296Z,972.91
2022-10-18T02:20:55.315Z,972.89
2022-10-18T02:21:55.250Z,972.89
2022-10-18T02:22:55.257Z,972.92
2022-10-18T02:23:55.270Z,972.90
2022-10-18T02:24:55.223Z,972.91
2022-10-18T02:25:55.247Z,972.87
2022-10-18T02:26:55.198Z,972.89
2022-10-18T02:27:55.217Z,972.83
2022-10-18T02:28:55.177Z,972.84
2022-10-18T02:29:55.189Z,972.87
2022-10-18T02:30:55.169Z,972.86
2022-10-18T02:31:55.150Z,972.85
2022-10-18T02:32:55.162Z,972.85
2022-10-18T02:33:55.111Z,972.88
2022-10-18T02:34:55.141Z,972.85
2022-10-18T02:35:55.094Z,972.84
2022-10-18T02:36:55.102Z,972.85
2022-10-18T02:37:55.070Z,972.88
2022-10-18T02:38:55.065Z,972.90
2022-10-18T02:39:55.053Z,972.86
2022-10-18T02:40:55.072Z,972.87
2022-10-18T02:41:55.051Z,972.87
2022-10-18T02:42:55.042Z,972.91
2022-10-18T02:43:55.035Z,972.89
2022-10-18T02:44:54.995Z,972.92
2022-10-18T02:45:54.986Z,972.91
2022-10-18T02:46:54.967Z,972.91
2022-10-18T02:47:54.976Z,972.91
2022-10-18T02:48:54.942Z,972.93
2022-10-18T02:49:54.943Z,972.94
2022-10-18T02:50:54.930Z,972.90
2022-10-18T02:51:54.927Z,972.94
2022-10-18T02:52:54.943Z,972.94
2022-10-18T02:53:54.897Z,972.98
2022-10-18T02:54:54.880Z,973.02
2022-10-18T02:55:54.903Z,972.97
2022-10-18T02:56:54.875Z,972.98
2022-10-18T02:57:54.856Z,972.97
2022-10-18T02:58:54.881Z,972.95
2022-10-18T02:59:54.818Z,972.95
2022-10-18T03:00:54.812Z,972.94
2022-10-18T03:01:54.877Z,972.93
2022-10-18T03:02:54.803Z,972.91
2022-10-18T03:03:54.857Z,972.96
2022-10-18T03:04:54.765Z,972.96
2022-10-18T03:05:54.772Z,972.89
2022-10-18T03:06:54.759Z,972.92
2022-10-18T03:07:54.737Z,972.94
2022-10-18T03:08:54.713Z,972.90
2022-10-18T03:09:54.747Z,972.88
2022-10-18T03:10:54.693Z,972.89
2022-10-18T03:11:54.702Z,972.91
2022-10-18T03:12:54.679Z,972.89
2022-10-18T03:13:54.674Z,972.92
2022-10-18T03:14:54.655Z,972.87
2022-10-18T03:15:54.660Z,972.86
2022-10-18T03:16:54.644Z,972.86
2022-10-18T03:17:54.636Z,972.90
2022-10-18T03:18:54.601Z,972.90
2022-10-18T03:19:54.610Z,972.88
2022-10-18T03:20:54.578Z,972.91
2022-10-18T03:21:54.603Z,972.92
2022-10-18T03:22:54.567Z,972.89
2022-10-18T03:23:54.560Z,972.92
2022-10-18T03:24:54.548Z,972.92
2022-10-18T03:25:54.541Z,972.92
2022-10-18T03:26:54.607Z,972.95
2022-10-18T03:27:54.547Z,972.95
2022-10-18T03:28:54.597Z,972.92
2022-10-18T03:29:54.476Z,972.92
2022-10-18T03:30:54.489Z,972.89
2022-10-18T03:31:54.466Z,972.91
2022-10-18T03:32:54.474Z,972.89
2022-10-18T03:33:54.444Z,972.88
2022-10-18T03:34:54.432Z,972.90
2022-10-18T03:35:54.417Z,972.92
2022-10-18T03:36:54.422Z,972.93
2022-10-18T03:37:54.422Z,972.93
2022-10-18T03:38:54.425Z,972.95
2022-10-18T03:39:54.380Z,972.97
2022-10-18T03:40:54.366Z,973.00
2022-10-18T03:41:54.349Z,972.95
2022-10-18T03:42:54.428Z,972.99
2022-10-18T03:43:54.338Z,972.91
2022-10-18T03:44:54.333Z,972.97
2022-10-18T03:45:54.312Z,972.97
2022-10-18T03:46:54.291Z,972.94
2022-10-18T03:47:54.290Z,972.96
2022-10-18T03:48:54.300Z,972.98
2022-10-18T03:49:57.050Z,972.97
2022-10-18T03:50:54.259Z,973.05
2022-10-18T03:51:54.267Z,973.06
2022-10-18T03:52:54.236Z,973.05
2022-10-18T03:53:54.228Z,973.05
2022-10-18T03:54:54.197Z,973.05
2022-10-18T03:55:54.205Z,973.09
2022-10-18T03:56:54.217Z,973.08
2022-10-18T03:57:54.181Z,973.09
2022-10-18T03:58:54.173Z,973.11
2022-10-18T03:59:54.179Z,973.07
2022-10-18T04:00:54.153Z,973.09
2022-10-18T04:01:54.218Z,973.13
2022-10-18T04:02:55.954Z,973.11
2022-10-18T04:03:54.109Z,973.16
2022-10-18T04:04:54.110Z,973.14
2022-10-18T04:05:54.121Z,973.14
2022-10-18T04:06:54.083Z,973.17
2022-10-18T04:07:54.075Z,973.17
2022-10-18T04:08:54.076Z,973.21
2022-10-18T04:09:54.801Z,973.20
2022-10-18T04:10:54.034Z,973.17
2022-10-18T04:11:54.035Z,973.14
2022-10-18T04:12:54.014Z,973.17
2022-10-18T04:13:54.166Z,973.19
2022-10-18T04:14:55.700Z,973.20
2022-10-18T04:15:53.970Z,973.22
2022-10-18T04:16:53.957Z,973.22
2022-10-18T04:17:53.936Z,973.18
2022-10-18T04:18:53.991Z,973.14
2022-10-18T04:19:53.925Z,973.14
2022-10-18T04:20:53.922Z,973.17
2022-10-18T04:21:53.893Z,973.17
2022-10-18T04:22:53.916Z,973.16
2022-10-18T04:23:53.892Z,973.15
2022-10-18T04:24:53.870Z,973.21
2022-10-18T04:25:53.890Z,973.19
2022-10-18T04:26:53.845Z,973.22
2022-10-18T04:27:53.836Z,973.22
2022-10-18T04:28:53.901Z,973.19
2022-10-18T04:29:53.815Z,973.21
2022-10-18T04:30:53.845Z,973.25
2022-10-18T04:31:53.794Z,973.28
2022-10-18T04:32:53.787Z,973.24
2022-10-18T04:33:53.804Z,973.35
2022-10-18T04:34:53.763Z,973.29
2022-10-18T04:35:53.769Z,973.28
2022-10-18T04:36:53.742Z,973.30
2022-10-18T04:37:53.774Z,973.31
2022-10-18T04:38:53.735Z,973.31
2022-10-18T04:39:53.932Z,973.31
2022-10-18T04:40:53.704Z,973.31
2022-10-18T04:41:53.675Z,973.35
2022-10-18T04:42:53.682Z,973.35
2022-10-18T04:43:53.681Z,973.38
2022-10-18T04:44:53.652Z,973.39
2022-10-18T04:45:53.632Z,973.40
2022-10-18T04:46:53.617Z,973.45
2022-10-18T04:47:53.639Z,973.39
2022-10-18T04:48:53.632Z,973.44
2022-10-18T04:49:53.617Z,973.42
2022-10-18T04:50:53.587Z,973.44
2022-10-18T04:51:53.574Z,973.42
2022-10-18T04:52:53.679Z,973.49
2022-10-18T04:53:53.546Z,973.46
2022-10-18T04:54:53.600Z,973.47
2022-10-18T04:55:53.536Z,973.54
2022-10-18T04:56:53.508Z,973.50
2022-10-18T04:57:53.500Z,973.49
2022-10-18T04:58:53.502Z,973.54
2022-10-18T04:59:53.500Z,973.55
2022-10-18T05:00:53.489Z,973.54
2022-10-18T05:01:53.670Z,973.52
2022-10-18T05:02:53.441Z,973.60
2022-10-18T05:03:53.428Z,973.62
2022-10-18T05:04:53.432Z,973.63
2022-10-18T05:06:02.705Z,973.65
2022-10-18T05:06:53.455Z,973.68
2022-10-18T05:07:53.416Z,973.70
2022-10-18T05:08:54.267Z,973.72
2022-10-18T05:09:53.358Z,973.70
2022-10-18T05:10:53.379Z,973.67
2022-10-18T05:11:53.355Z,973.70
2022-10-18T05:12:53.389Z,973.70
2022-10-18T05:13:53.423Z,973.72
2022-10-18T05:14:53.349Z,973.73
2022-10-18T05:15:53.294Z,973.73
2022-10-18T05:16:53.341Z,973.75
2022-10-18T05:17:53.283Z,973.75
2022-10-18T05:18:53.273Z,973.78
2022-10-18T05:19:55.760Z,973.76
2022-10-18T05:20:53.293Z,973.76
2022-10-18T05:21:53.237Z,973.78
2022-10-18T05:22:53.211Z,973.84
2022-10-18T05:23:53.211Z,973.78
2022-10-18T05:24:53.229Z,973.75
2022-10-18T05:25:53.200Z,973.78
2022-10-18T05:26:53.196Z,973.77
2022-10-18T05:27:53.170Z,973.79
2022-10-18T05:28:53.199Z,973.82
2022-10-18T05:29:53.143Z,973.82
2022-10-18T05:30:53.141Z,973.85
2022-10-18T05:31:53.163Z,973.83
2022-10-18T05:32:53.425Z,973.88
2022-10-18T05:33:53.662Z,973.88
2022-10-18T05:34:53.088Z,973.91
2022-10-18T05:35:53.105Z,973.92
2022-10-18T05:36:53.099Z,973.91
2022-10-18T05:37:53.073Z,973.93
2022-10-18T05:38:53.045Z,973.90
2022-10-18T05:39:53.051Z,973.98
2022-10-18T05:40:53.020Z,973.96
2022-10-18T05:41:53.038Z,973.98
2022-10-18T05:42:53.858Z,973.97
2022-10-18T05:43:52.986Z,973.95
2022-10-18T05:44:52.979Z,973.97
2022-10-18T05:45:53.005Z,973.93
2022-10-18T05:46:52.981Z,973.91
2022-10-18T05:47:52.974Z,973.98
2022-10-18T05:48:52.978Z,973.97
2022-10-18T05:49:52.930Z,973.99
2022-10-18T05:50:52.998Z,974.01
2022-10-18T05:51:52.921Z,974.04
2022-10-18T05:52:52.979Z,974.04
2022-10-18T05:53:52.882Z,974.06
2022-10-18T05:54:52.863Z,974.05
2022-10-18T05:55:52.867Z,974.07
2022-10-18T05:56:52.866Z,974.09
2022-10-18T05:57:52.834Z,974.08
2022-10-18T05:58:52.847Z,974.06
2022-10-18T05:59:52.835Z,974.06
2022-10-18T06:00:52.849Z,974.05
2022-10-18T06:01:52.826Z,974.09
2022-10-18T06:02:54.412Z,974.12
2022-10-18T06:03:52.778Z,974.15
2022-10-18T06:04:52.820Z,974.14
2022-10-18T06:05:52.760Z,974.20
2022-10-18T06:06:52.772Z,974.20
2022-10-18T06:07:52.763Z,974.16
2022-10-18T06:08:52.722Z,974.21
2022-10-18T06:09:52.716Z,974.21
2022-10-18T06:10:52.691Z,974.24
2022-10-18T06:11:53.676Z,974.25
2022-10-18T06:12:52.693Z,974.33
2022-10-18T06:13:52.713Z,974.29
2022-10-18T06:14:52.686Z,974.34
2022-10-18T06:15:52.663Z,974.32
2022-10-18T06:16:52.613Z,974.33
2022-10-18T06:17:52.598Z,974.37
2022-10-18T06:18:52.635Z,974.37
2022-10-18T06:19:52.587Z,974.37
2022-10-18T06:20:52.592Z,974.39
2022-10-18T06:21:52.585Z,974.41
2022-10-18T06:22:52.567Z,974.38
2022-10-18T06:23:52.561Z,974.43
2022-10-18T06:24:57.147Z,974.40
2022-10-18T06:25:52.516Z,974.47
2022-10-18T06:26:52.586Z,974.44
2022-10-18T06:27:52.528Z,974.49
2022-10-18T06:28:52.608Z,974.46
2022-10-18T06:29:52.496Z,974.46
2022-10-18T06:30:52.474Z,974.47
2022-10-18T06:31:52.441Z,974.47
2022-10-18T06:32:52.468Z,974.49
2022-10-18T06:33:52.453Z,974.52
2022-10-18T06:34:52.721Z,974.51
2022-10-18T06:35:52.411Z,974.59
2022-10-18T06:36:56.401Z,974.56
2022-10-18T06:37:52.374Z,974.58
2022-10-18T06:38:52.386Z,974.56
2022-10-18T06:39:52.416Z,974.63
2022-10-18T06:40:52.367Z,974.63
2022-10-18T06:41:52.396Z,974.68
2022-10-18T06:43:00.243Z,974.66
2022-10-18T06:43:52.332Z,974.69
2022-10-18T06:44:52.523Z,974.68
2022-10-18T06:45:52.901Z,974.68
2022-10-18T06:46:52.302Z,974.71
2022-10-18T06:47:52.325Z,974.72
2022-10-18T06:48:52.278Z,974.75
2022-10-18T06:49:52.245Z,974.73
2022-10-18T06:50:52.235Z,974.75
2022-10-18T06:51:52.239Z,974.78
2022-10-18T06:52:52.212Z,974.74
2022-10-18T06:54:06.260Z,974.76
2022-10-18T06:54:52.217Z,974.75
2022-10-18T06:55:52.191Z,974.79
2022-10-18T06:56:52.164Z,974.78
2022-10-18T06:57:52.179Z,974.82
2022-10-18T06:58:52.214Z,974.78
2022-10-18T06:59:52.157Z,974.80
2022-10-18T07:00:52.124Z,974.85
2022-10-18T07:01:52.171Z,974.84
2022-10-18T07:02:52.137Z,974.89
2022-10-18T07:03:52.840Z,974.88
2022-10-18T07:04:52.101Z,974.89
2022-10-18T07:05:52.073Z,974.91
2022-10-18T07:06:52.098Z,974.90
2022-10-18T07:07:54.333Z,974.91
2022-10-18T07:08:52.106Z,974.95
2022-10-18T07:09:52.026Z,974.99
2022-10-18T07:10:52.049Z,975.01
2022-10-18T07:11:52.019Z,975.02
2022-10-18T07:12:59.223Z,975.04
2022-10-18T07:13:51.993Z,975.01
2022-10-18T07:14:52.013Z,975.07
2022-10-18T07:15:51.946Z,975.03
2022-10-18T07:16:51.951Z,975.03
2022-10-18T07:17:51.933Z,975.07
2022-10-18T07:18:51.935Z,975.10
2022-10-18T07:19:51.955Z,975.07
2022-10-18T07:20:51.897Z,975.06
2022-10-18T07:21:51.883Z,975.07
2022-10-18T07:22:51.876Z,975.05
2022-10-18T07:23:51.908Z,975.06
2022-10-18T07:24:51.857Z,975.06
2022-10-18T07:25:51.865Z,975.11
2022-10-18T07:26:51.847Z,975.07
2022-10-18T07:27:51.822Z,975.10
2022-10-18T07:28:51.884Z,975.11
2022-10-18T07:29:51.835Z,975.14
2022-10-18T07:30:51.789Z,975.12
2022-10-18T07:31:51.785Z,975.15
2022-10-18T07:32:51.766Z,975.19
2022-10-18T07:33:51.756Z,975.18
2022-10-18T07:34:51.786Z,975.25
2022-10-18T07:35:51.738Z,975.23
2022-10-18T07:36:51.739Z,975.19
2022-10-18T07:37:51.764Z,975.23
2022-10-18T07:38:51.710Z,975.15
2022-10-18T07:39:51.688Z,975.16
2022-10-18T07:40:51.729Z,975.19
2022-10-18T07:41:51.670Z,975.17
2022-10-18T07:42:51.674Z,975.21
2022-10-18T07:43:51.649Z,975.25
2022-10-18T07:44:51.669Z,975.21
2022-10-18T07:45:51.612Z,975.20
2022-10-18T07:46:51.619Z,975.22
2022-10-18T07:47:51.625Z,975.20
2022-10-18T07:48:51.593Z,975.26
2022-10-18T07:49:51.576Z,975.23
2022-10-18T07:50:51.579Z,975.22
2022-10-18T07:51:51.641Z,975.18
2022-10-18T07:52:51.545Z,975.23
2022-10-18T07:53:51.547Z,975.23
2022-10-18T07:54:51.530Z,975.28
2022-10-18T07:55:51.511Z,975.29
2022-10-18T07:56:51.535Z,975.30
2022-10-18T07:57:51.547Z,975.31
2022-10-18T07:58:51.478Z,975.29
2022-10-18T07:59:51.498Z,975.29
2022-10-18T08:00:51.538Z,975.34
2022-10-18T08:01:51.544Z,975.32
2022-10-18T08:02:51.448Z,975.33
2022-10-18T08:03:51.453Z,975.36
2022-10-18T08:04:51.413Z,975.30
2022-10-18T08:05:51.411Z,975.40
2022-10-18T08:06:51.385Z,975.34
2022-10-18T08:07:51.371Z,975.37
2022-10-18T08:08:51.375Z,975.36
2022-10-18T08:09:51.339Z,975.41
2022-10-18T08:10:51.372Z,975.45
2022-10-18T08:11:51.337Z,975.43
2022-10-18T08:12:51.306Z,975.45
2022-10-18T08:13:51.326Z,975.41
2022-10-18T08:14:51.294Z,975.44
2022-10-18T08:15:51.333Z,975.43
2022-10-18T08:16:51.320Z,975.47
2022-10-18T08:17:51.261Z,975.50
2022-10-18T08:18:51.237Z,975.50
2022-10-18T08:20:04.730Z,975.52
2022-10-18T08:20:51.237Z,975.59
2022-10-18T08:21:51.245Z,975.62
2022-10-18T08:22:51.223Z,975.60
2022-10-18T08:23:51.186Z,975.62
2022-10-18T08:24:51.238Z,975.62
2022-10-18T08:25:51.199Z,975.66
2022-10-18T08:26:51.156Z,975.67
2022-10-18T08:27:51.164Z,975.67
2022-10-18T08:28:58.215Z,975.71
2022-10-18T08:29:51.182Z,975.67
2022-10-18T08:30:51.147Z,975.67
2022-10-18T08:31:51.117Z,975.68
2022-10-18T08:32:51.109Z,975.73
2022-10-18T08:33:51.135Z,975.74
2022-10-18T08:34:51.068Z,975.73
2022-10-18T08:35:51.081Z,975.73
2022-10-18T08:36:51.042Z,975.76
2022-10-18T08:37:51.040Z,975.73
2022-10-18T08:38:51.040Z,975.74
2022-10-18T08:39:51.050Z,975.73
2022-10-18T08:40:51.075Z,975.78
2022-10-18T08:41:50.982Z,975.76
2022-10-18T08:42:51.010Z,975.75
2022-10-18T08:43:50.958Z,975.80
2022-10-18T08:44:50.966Z,975.77
2022-10-18T08:45:50.985Z,975.81
2022-10-18T08:46:50.947Z,975.83
2022-10-18T08:47:50.927Z,975.85
2022-10-18T08:48:50.933Z,975.85
2022-10-18T08:49:50.932Z,975.91
2022-10-18T08:50:50.904Z,975.89
2022-10-18T08:51:50.959Z,975.90
2022-10-18T08:52:50.890Z,975.92
2022-10-18T08:53:50.868Z,975.85
2022-10-18T08:54:50.867Z,975.84
2022-10-18T08:55:50.844Z,975.87
2022-10-18T08:56:50.837Z,975.84
2022-10-18T08:57:50.831Z,975.86
2022-10-18T08:58:50.826Z,975.84
2022-10-18T08:59:50.787Z,975.92
2022-10-18T09:00:50.767Z,975.89
2022-10-18T09:01:51.293Z,975.93
2022-10-18T09:02:50.810Z,975.92
2022-10-18T09:03:50.848Z,975.80
2022-10-18T09:04:50.795Z,975.84
2022-10-18T09:05:50.736Z,975.83
2022-10-18T09:06:50.713Z,975.84
2022-10-18T09:07:50.706Z,975.81
2022-10-18T09:08:50.691Z,975.87
2022-10-18T09:09:50.713Z,975.88
2022-10-18T09:10:50.759Z,975.86
2022-10-18T09:11:50.666Z,975.89
2022-10-18T09:12:50.645Z,975.87
2022-10-18T09:13:50.623Z,975.93
2022-10-18T09:14:50.877Z,975.91
2022-10-18T09:15:50.640Z,975.94
2022-10-18T09:16:50.602Z,975.95
2022-10-18T09:17:50.602Z,975.98
2022-10-18T09:18:50.586Z,975.92
2022-10-18T09:19:50.636Z,975.95
2022-10-18T09:20:50.582Z,975.97
2022-10-18T09:21:50.802Z,975.99
2022-10-18T09:22:50.577Z,975.99
2022-10-18T09:23:50.547Z,976.01
2022-10-18T09:24:50.562Z,976.03
2022-10-18T09:25:50.482Z,976.06
2022-10-18T09:26:50.497Z,976.08
2022-10-18T09:27:50.580Z,976.11
2022-10-18T09:28:50.512Z,976.10
2022-10-18T09:29:50.465Z,976.13
2022-10-18T09:30:50.454Z,976.07
2022-10-18T09:31:50.452Z,976.12
2022-10-18T09:32:50.456Z,976.13
2022-10-18T09:33:51.310Z,976.15
2022-10-18T09:34:50.415Z,976.18
2022-10-18T09:35:50.381Z,976.21
2022-10-18T09:36:50.399Z,976.20
2022-10-18T09:37:50.383Z,976.25
2022-10-18T09:38:50.385Z,976.21
2022-10-18T09:39:50.371Z,976.25
2022-10-18T09:40:50.321Z,976.25
2022-10-18T09:41:50.354Z,976.29
2022-10-18T09:42:50.337Z,976.27
2022-10-18T09:43:50.287Z,976.27
2022-10-18T09:44:50.279Z,976.29
2022-10-18T09:45:50.290Z,976.30
2022-10-18T09:46:50.391Z,976.35
2022-10-18T09:47:50.269Z,976.34
2022-10-18T09:48:50.259Z,976.34
2022-10-18T09:49:50.287Z,976.32
2022-10-18T09:50:50.229Z,976.32
2022-10-18T09:51:57.800Z,976.32
2022-10-18T09:52:50.220Z,976.35
2022-10-18T09:53:50.242Z,976.38
2022-10-18T09:54:50.183Z,976.32
2022-10-18T09:55:50.187Z,976.32
2022-10-18T09:56:50.266Z,976.39
2022-10-18T09:57:50.143Z,976.33
2022-10-18T09:58:50.126Z,976.36
2022-10-18T09:59:50.219Z,976.43
2022-10-18T10:00:50.166Z,976.37
2022-10-18T10:01:50.087Z,976.38
2022-10-18T10:02:51.155Z,976.37
2022-10-18T10:03:50.074Z,976.38
2022-10-18T10:04:50.068Z,976.41
2022-10-18T10:05:50.073Z,976.42
2022-10-18T10:06:51.016Z,976.41
2022-10-18T10:07:50.020Z,976.44
2022-10-18T10:08:50.804Z,976.45
2022-10-18T10:09:50.016Z,976.48
2022-10-18T10:10:50.046Z,976.50
2022-10-18T10:11:49.990Z,976.48
2022-10-18T10:12:49.958Z,976.49
2022-10-18T10:13:49.960Z,976.54
2022-10-18T10:14:49.944Z,976.55
2022-10-18T10:15:49.944Z,976.58
2022-10-18T10:16:49.974Z,976.54
2022-10-18T10:17:49.920Z,976.56
2022-10-18T10:18:49.910Z,976.59
2022-10-18T10:19:49.927Z,976.54
2022-10-18T10:20:49.885Z,976.52
2022-10-18T10:21:49.872Z,976.55
2022-10-18T10:22:49.899Z,976.59
2022-10-18T10:23:49.879Z,976.55
2022-10-18T10:24:49.832Z,976.58
2022-10-18T10:25:49.836Z,976.60
2022-10-18T10:26:49.823Z,976.62
2022-10-18T10:27:50.526Z,976.58
2022-10-18T10:28:49.813Z,976.65
2022-10-18T10:29:49.889Z,976.68
2022-10-18T10:30:49.775Z,976.69
2022-10-18T10:31:49.768Z,976.71
2022-10-18T10:32:49.775Z,976.72
2022-10-18T10:33:49.761Z,976.70
2022-10-18T10:34:49.741Z,976.71
2022-10-18T10:35:53.675Z,976.73
2022-10-18T10:36:49.775Z,976.68
2022-10-18T10:37:49.687Z,976.75
2022-10-18T10:38:49.708Z,976.68
2022-10-18T10:40:06.896Z,976.75
2022-10-18T10:40:49.670Z,976.80
2022-10-18T10:41:49.672Z,976.79
2022-10-18T10:42:49.687Z,976.78
2022-10-18T10:43:50.534Z,976.92
2022-10-18T10:44:49.601Z,976.82
2022-10-18T10:45:49.631Z,976.83
2022-10-18T10:46:49.597Z,976.86
2022-10-18T10:47:49.760Z,976.89
2022-10-18T10:48:49.597Z,976.90
2022-10-18T10:49:49.559Z,976.95
2022-10-18T10:50:51.966Z,976.96
2022-10-18T10:51:53.760Z,977.00
2022-10-18T10:52:49.545Z,976.99
2022-10-18T10:53:49.548Z,977.01
2022-10-18T10:54:52.200Z,977.02
2022-10-18T10:55:49.476Z,977.02
2022-10-18T10:56:49.482Z,977.04
2022-10-18T10:57:49.503Z,976.99
2022-10-18T10:58:49.526Z,977.00
2022-10-18T10:59:49.594Z,977.03
2022-10-18T11:00:49.435Z,977.02
2022-10-18T11:01:49.435Z,977.02
2022-10-18T11:02:59.377Z,977.07
2022-10-18T11:03:49.465Z,977.10
2022-10-18T11:04:49.391Z,977.09
2022-10-18T11:05:49.375Z,977.13
2022-10-18T11:06:49.353Z,977.06
2022-10-18T11:07:49.379Z,977.13
2022-10-18T11:08:49.348Z,977.13
2022-10-18T11:09:49.342Z,977.13
2022-10-18T11:10:49.301Z,977.12
2022-10-18T11:11:49.339Z,977.17
2022-10-18T11:12:49.447Z,977.14
2022-10-18T11:13:53.301Z,977.16
2022-10-18T11:14:49.301Z,977.19
2022-10-18T11:15:49.982Z,977.12
2022-10-18T11:16:49.257Z,977.10
2022-10-18T11:17:49.310Z,977.13
2022-10-18T11:18:49.223Z,977.16
2022-10-18T11:19:49.222Z,977.14
2022-10-18T11:20:49.254Z,977.17
2022-10-18T11:21:49.252Z,977.19
2022-10-18T11:22:49.183Z,977.14
2022-10-18T11:23:49.992Z,977.15
2022-10-18T11:24:50.069Z,977.15
2022-10-18T11:25:49.139Z,977.18
2022-10-18T11:26:53.452Z,977.11
2022-10-18T11:27:49.149Z,977.19
2022-10-18T11:28:49.218Z,977.09
2022-10-18T11:29:49.115Z,977.15
2022-10-18T11:30:49.107Z,977.16
2022-10-18T11:31:49.088Z,977.19
2022-10-18T11:32:49.130Z,977.22
2022-10-18T11:34:09.257Z,977.15
2022-10-18T11:34:49.055Z,977.19
2022-10-18T11:35:49.050Z,977.23
2022-10-18T11:36:54.723Z,977.20
2022-10-18T11:37:50.467Z,977.21
2022-10-18T11:38:48.999Z,977.17
2022-10-18T11:39:48.999Z,977.25
2022-10-18T11:40:49.027Z,977.23
2022-10-18T11:41:49.215Z,977.24
2022-10-18T11:42:49.012Z,977.26
2022-10-18T11:44:02.248Z,977.24
2022-10-18T11:44:48.956Z,977.24
2022-10-18T11:45:48.944Z,977.27
2022-10-18T11:46:48.995Z,977.29
2022-10-18T11:47:52.213Z,977.25
2022-10-18T11:48:48.908Z,977.30
2022-10-18T11:49:48.906Z,977.31
2022-10-18T11:50:48.909Z,977.32
2022-10-18T11:52:07.449Z,977.29
2022-10-18T11:52:48.870Z,977.34
2022-10-18T11:53:51.916Z,977.33
2022-10-18T11:54:48.854Z,977.36
2022-10-18T11:55:48.921Z,977.37
2022-10-18T11:56:48.823Z,977.40
2022-10-18T11:57:48.792Z,977.32
2022-10-18T11:58:48.821Z,977.45
2022-10-18T11:59:48.786Z,977.35
2022-10-18T12:00:48.744Z,977.40
2022-10-18T12:01:48.731Z,977.38
2022-10-18T12:02:48.846Z,977.43
2022-10-18T12:03:48.705Z,977.38
2022-10-18T12:04:58.529Z,977.46
2022-10-18T12:05:48.764Z,977.47
2022-10-18T12:06:48.702Z,977.50
2022-10-18T12:07:48.668Z,977.50
2022-10-18T12:08:48.699Z,977.52
2022-10-18T12:11:04.023Z,977.56
2022-10-18T12:11:51.200Z,977.55
2022-10-18T12:12:48.641Z,977.55
2022-10-18T12:13:48.646Z,977.52
2022-10-18T12:14:48.609Z,977.50
2022-10-18T12:15:48.650Z,977.55
2022-10-18T12:16:58.421Z,977.54
2022-10-18T12:17:51.268Z,977.51
2022-10-18T12:18:48.630Z,977.56
2022-10-18T12:19:48.530Z,977.55
2022-10-18T12:20:48.560Z,977.55
2022-10-18T12:21:48.534Z,977.52
2022-10-18T12:22:48.523Z,977.54
2022-10-18T12:23:48.497Z,977.51
2022-10-18T12:24:49.056Z,977.54
2022-10-18T12:25:48.491Z,977.54
2022-10-18T12:26:48.522Z,977.54
2022-10-18T12:27:48.454Z,977.62
2022-10-18T12:28:48.900Z,977.56
2022-10-18T12:29:50.380Z,977.51
2022-10-18T12:30:48.407Z,977.58
2022-10-18T12:31:48.426Z,977.62